createdAt,value
2023-05-13T00:02:25.977Z,99834.44
2023-05-13T00:04:52.897Z,99856.25
2023-05-13T00:07:20.113Z,99849.63
2023-05-13T00:09:46.989Z,99849.03
2023-05-13T00:12:13.921Z,99850.97
2023-05-13T00:14:40.959Z,99861.88
2023-05-13T00:17:07.902Z,99852.00
2023-05-13T00:19:34.832Z,99846.66
2023-05-13T00:22:01.722Z,99850.34
2023-05-13T00:24:28.735Z,99853.59
2023-05-13T00:26:55.539Z,99856.44
2023-05-13T00:29:22.584Z,99863.66
2023-05-13T00:31:49.475Z,99873.94
2023-05-13T00:34:17.049Z,99866.34
2023-05-13T00:36:44.602Z,99866.09
2023-05-13T00:39:11.786Z,99860.31
2023-05-13T00:42:04.549Z,99873.75
2023-05-13T00:44:31.709Z,99866.03
2023-05-13T00:46:59.381Z,99861.38
2023-05-13T00:49:27.019Z,99867.91
2023-05-13T00:51:55.342Z,99858.38
2023-05-13T00:54:22.457Z,99856.22
2023-05-13T00:56:49.354Z,99851.31
2023-05-13T00:59:16.223Z,99865.00
2023-05-13T01:02:10.883Z,99828.88
2023-05-13T01:04:44.076Z,99856.31
2023-05-13T01:07:22.803Z,99851.63
2023-05-13T01:10:16.041Z,99860.91
2023-05-13T01:12:46.628Z,99851.41
2023-05-13T01:15:21.933Z,99853.47
2023-05-13T01:18:00.008Z,99843.00
2023-05-13T01:20:28.474Z,99861.94
2023-05-13T01:22:56.716Z,99863.06
2023-05-13T01:25:25.789Z,99862.84
2023-05-13T01:27:53.549Z,99876.88
2023-05-13T01:30:21.820Z,99879.94
2023-05-13T01:32:50.491Z,99862.75
2023-05-13T01:35:18.055Z,99874.28
2023-05-13T01:37:49.095Z,99878.31
2023-05-13T01:40:31.210Z,99874.13
2023-05-13T01:43:02.094Z,99876.50
2023-05-13T01:45:30.410Z,99864.13
2023-05-13T01:47:57.894Z,99862.56
2023-05-13T01:50:26.722Z,99885.06
2023-05-13T01:52:53.694Z,99891.44
2023-05-13T01:55:20.819Z,99879.47
2023-05-13T01:57:48.842Z,99893.03
2023-05-13T02:00:16.429Z,99898.34
2023-05-13T02:02:43.203Z,99894.47
2023-05-13T02:05:10.646Z,99888.22
2023-05-13T02:07:38.285Z,99883.91
2023-05-13T02:10:06.450Z,99880.44
2023-05-13T02:12:33.453Z,99885.41
2023-05-13T02:15:00.504Z,99889.25
2023-05-13T02:17:27.481Z,99890.09
2023-05-13T02:19:54.550Z,99887.44
2023-05-13T02:22:21.378Z,99900.34
2023-05-13T02:24:48.363Z,99903.47
2023-05-13T02:27:16.497Z,99901.91
2023-05-13T02:29:43.537Z,99912.38
2023-05-13T02:32:11.437Z,99889.22
2023-05-13T02:34:38.598Z,99886.25
2023-05-13T02:37:05.949Z,99898.53
2023-05-13T02:39:38.166Z,99878.59
2023-05-13T02:42:05.727Z,99873.16
2023-05-13T02:44:33.105Z,99895.06
2023-05-13T02:47:01.051Z,99887.97
2023-05-13T02:49:28.101Z,99881.44
2023-05-13T02:51:55.273Z,99895.97
2023-05-13T02:54:29.089Z,99895.69
2023-05-13T02:56:56.211Z,99906.13
2023-05-13T02:59:23.307Z,99907.78
2023-05-13T03:01:50.350Z,99901.47
2023-05-13T03:04:17.381Z,99890.34
2023-05-13T03:06:44.550Z,99884.31
2023-05-13T03:09:11.345Z,99889.84
2023-05-13T03:11:38.386Z,99897.53
2023-05-13T03:14:05.674Z,99906.84
2023-05-13T03:16:32.869Z,99896.81
2023-05-13T03:18:59.975Z,99893.53
2023-05-13T03:21:27.279Z,99907.50
2023-05-13T03:23:54.354Z,99905.06
2023-05-13T03:26:21.955Z,99898.78
2023-05-13T03:28:48.868Z,99913.56
2023-05-13T03:31:16.882Z,99923.66
2023-05-13T03:33:44.299Z,99912.44
2023-05-13T03:36:12.513Z,99905.91
2023-05-13T03:38:39.349Z,99914.34
2023-05-13T03:41:06.420Z,99909.97
2023-05-13T03:43:34.028Z,99922.84
2023-05-13T03:46:03.752Z,99913.84
2023-05-13T03:48:31.270Z,99935.47
2023-05-13T03:51:02.050Z,99942.81
2023-05-13T03:53:29.505Z,99950.47
2023-05-13T03:55:56.350Z,99949.63
2023-05-13T03:58:23.420Z,99940.25
2023-05-13T04:00:50.346Z,99960.41
2023-05-13T04:03:17.808Z,99953.84
2023-05-13T04:05:48.380Z,99951.63
2023-05-13T04:08:16.017Z,99962.50
2023-05-13T04:10:43.703Z,99957.59
2023-05-13T04:13:11.410Z,99961.97
2023-05-13T04:15:38.500Z,99966.31
2023-05-13T04:18:06.818Z,99956.09
2023-05-13T04:20:34.904Z,99962.91
2023-05-13T04:23:01.961Z,99949.22
2023-05-13T04:25:29.885Z,99970.75
2023-05-13T04:27:56.945Z,99953.72
2023-05-13T04:30:29.899Z,99969.97
2023-05-13T04:32:57.481Z,99963.19
2023-05-13T04:35:24.875Z,99959.03
2023-05-13T04:37:55.620Z,99968.25
2023-05-13T04:40:23.218Z,99982.97
2023-05-13T04:42:54.880Z,99981.59
2023-05-13T04:45:29.618Z,99976.00
2023-05-13T04:47:58.503Z,99984.06
2023-05-13T04:50:25.590Z,99985.59
2023-05-13T04:52:55.008Z,99994.22
2023-05-13T04:55:23.041Z,99996.91
2023-05-13T04:57:50.973Z,100013.97
2023-05-13T05:00:18.781Z,99977.94
2023-05-13T05:02:48.977Z,100010.03
2023-05-13T05:05:18.257Z,100008.78
2023-05-13T05:07:46.353Z,100004.97
2023-05-13T05:10:15.231Z,99995.44
2023-05-13T05:12:48.770Z,99999.44
2023-05-13T05:15:15.996Z,100004.38
2023-05-13T05:17:46.421Z,99995.53
2023-05-13T05:20:13.660Z,100000.22
2023-05-13T05:22:42.349Z,99997.97
2023-05-13T05:25:13.480Z,99995.06
2023-05-13T05:27:43.435Z,100009.16
2023-05-13T05:30:11.368Z,99999.78
2023-05-13T05:35:39.791Z,99997.09
2023-05-13T05:38:12.658Z,99985.81
2023-05-13T05:40:48.695Z,99988.22
2023-05-13T05:43:16.620Z,99994.31
2023-05-13T05:45:44.385Z,99996.91
2023-05-13T05:48:15.726Z,100000.84
2023-05-13T05:50:43.000Z,100001.91
2023-05-13T05:53:13.107Z,100039.44
2023-05-13T05:55:40.486Z,100019.34
2023-05-13T05:58:19.849Z,100024.72
2023-05-13T06:00:47.089Z,100008.47
2023-05-13T06:03:14.348Z,100004.53
2023-05-13T06:05:41.683Z,100004.44
2023-05-13T06:08:08.647Z,100021.44
2023-05-13T06:10:35.478Z,100019.97
2023-05-13T06:13:02.590Z,100022.78
2023-05-13T06:15:30.159Z,100012.38
2023-05-13T06:17:57.754Z,100021.09
2023-05-13T06:20:25.353Z,100020.78
2023-05-13T06:22:52.421Z,99996.19
2023-05-13T06:25:19.298Z,100006.59
2023-05-13T06:27:46.579Z,100003.97
2023-05-13T06:30:13.565Z,99993.34
2023-05-13T06:32:53.464Z,100007.16
2023-05-13T06:35:27.637Z,100011.38
2023-05-13T06:37:54.724Z,100006.66
2023-05-13T06:40:22.182Z,100013.09
2023-05-13T06:42:49.440Z,100009.13
2023-05-13T06:45:23.648Z,100003.72
2023-05-13T06:47:51.801Z,99998.63
2023-05-13T06:50:19.805Z,100002.53
2023-05-13T06:52:47.360Z,99993.75
2023-05-13T06:55:14.926Z,99987.25
2023-05-13T06:57:43.808Z,99989.44
2023-05-13T07:00:11.624Z,100008.47
2023-05-13T07:02:39.265Z,99995.66
2023-05-13T07:05:06.926Z,100007.88
2023-05-13T07:07:34.488Z,100010.44
2023-05-13T07:10:01.608Z,100006.34
2023-05-13T07:12:28.508Z,100004.28
2023-05-13T07:14:55.594Z,100006.44
2023-05-13T07:17:31.477Z,100016.00
2023-05-13T07:19:58.447Z,100013.88
2023-05-13T07:22:25.367Z,100012.50
2023-05-13T07:24:52.430Z,100003.16
2023-05-13T07:27:19.301Z,99997.31
2023-05-13T07:29:46.553Z,99997.72
2023-05-13T07:32:13.338Z,99992.16
2023-05-13T07:34:40.764Z,99987.91
2023-05-13T07:37:07.516Z,99998.69
2023-05-13T07:39:34.343Z,99994.50
2023-05-13T07:42:02.294Z,99994.00
2023-05-13T07:44:29.924Z,99992.53
2023-05-13T07:46:56.908Z,99998.91
2023-05-13T07:49:24.089Z,99996.81
2023-05-13T07:51:50.927Z,99985.09
2023-05-13T07:54:18.666Z,99991.69
2023-05-13T07:56:46.695Z,99985.97
2023-05-13T07:59:13.716Z,99966.53
2023-05-13T08:01:40.770Z,99977.34
2023-05-13T08:04:08.092Z,99990.09
2023-05-13T08:06:35.127Z,99982.44
2023-05-13T08:09:02.255Z,99974.78
2023-05-13T08:11:29.149Z,99992.63
2023-05-13T08:13:56.044Z,99990.03
2023-05-13T08:16:23.385Z,99988.97
2023-05-13T08:18:50.404Z,99984.66
2023-05-13T08:21:17.395Z,99984.25
2023-05-13T08:23:45.866Z,99988.13
2023-05-13T08:26:13.897Z,99973.16
2023-05-13T08:28:42.281Z,99977.47
2023-05-13T08:31:12.623Z,99962.41
2023-05-13T08:33:41.911Z,99972.56
2023-05-13T08:36:09.955Z,99979.50
2023-05-13T08:38:36.807Z,99986.91
2023-05-13T08:41:07.035Z,99991.31
2023-05-13T08:43:34.536Z,99992.63
2023-05-13T08:46:04.375Z,99986.16
2023-05-13T08:48:32.344Z,99999.59
2023-05-13T08:51:01.294Z,100004.09
2023-05-13T08:53:28.611Z,99981.78
2023-05-13T08:55:56.742Z,99987.75
2023-05-13T08:58:25.255Z,100005.00
2023-05-13T09:00:54.264Z,99992.28
2023-05-13T09:03:21.719Z,99984.47
2023-05-13T09:05:48.865Z,99985.56
2023-05-13T09:08:15.629Z,99980.16
2023-05-13T09:10:42.786Z,99977.56
2023-05-13T09:13:12.082Z,99977.53
2023-05-13T09:15:42.402Z,99976.66
2023-05-13T09:18:09.523Z,99972.56
2023-05-13T09:20:36.876Z,99977.16
2023-05-13T09:23:09.277Z,99982.84
2023-05-13T09:25:37.753Z,99982.75
2023-05-13T09:28:07.751Z,99982.47
2023-05-13T09:30:36.851Z,99991.94
2023-05-13T09:33:12.133Z,99999.50
2023-05-13T09:35:44.583Z,99981.94
2023-05-13T09:38:39.242Z,99978.44
2023-05-13T09:41:06.489Z,99963.00
2023-05-13T09:43:33.928Z,99965.13
2023-05-13T09:46:05.346Z,99968.41
2023-05-13T09:48:40.266Z,99971.81
2023-05-13T09:51:07.588Z,99957.94
2023-05-13T09:53:35.122Z,99960.28
2023-05-13T09:56:38.224Z,99951.28
2023-05-13T09:59:05.155Z,99944.16
2023-05-13T10:01:35.133Z,99947.84
2023-05-13T10:04:03.160Z,99951.50
2023-05-13T10:06:31.245Z,99948.25
2023-05-13T10:09:01.377Z,99953.16
2023-05-13T10:11:31.464Z,99963.03
2023-05-13T10:14:05.256Z,99948.19
2023-05-13T10:16:32.437Z,99929.56
2023-05-13T10:18:59.832Z,99916.16
2023-05-13T10:21:31.175Z,99935.56
2023-05-13T10:23:58.477Z,99935.16
2023-05-13T10:26:26.254Z,99932.00
2023-05-13T10:28:55.282Z,99945.63
2023-05-13T10:31:22.139Z,99936.34
2023-05-13T10:33:49.255Z,99946.34
2023-05-13T10:36:47.193Z,99954.78
2023-05-13T10:39:32.752Z,99948.09
2023-05-13T10:42:30.785Z,99946.47
2023-05-13T10:45:01.531Z,99935.59
2023-05-13T10:47:32.769Z,99941.03
2023-05-13T10:50:04.963Z,99948.97
2023-05-13T10:52:48.089Z,99940.78
2023-05-13T10:55:17.412Z,99934.31
2023-05-13T10:58:10.997Z,99945.91
2023-05-13T11:01:08.009Z,99947.25
2023-05-13T11:03:35.345Z,99922.63
2023-05-13T11:06:16.478Z,99941.31
2023-05-13T11:08:45.574Z,99931.06
2023-05-13T11:11:21.430Z,99949.09
2023-05-13T11:14:00.343Z,99946.16
2023-05-13T11:16:27.403Z,99943.44
2023-05-13T11:18:54.806Z,99935.69
2023-05-13T11:21:35.778Z,99935.47
2023-05-13T11:24:05.788Z,99942.84
2023-05-13T11:26:46.925Z,99931.28
2023-05-13T11:29:14.658Z,99939.09
2023-05-13T11:31:50.354Z,99941.00
2023-05-13T11:34:18.773Z,99932.44
2023-05-13T11:36:56.813Z,99924.38
2023-05-13T11:39:26.609Z,99933.59
2023-05-13T11:41:57.303Z,99943.09
2023-05-13T11:44:25.537Z,99939.16
2023-05-13T11:46:59.622Z,99938.09
2023-05-13T11:49:44.052Z,99932.19
2023-05-13T11:52:12.063Z,99950.72
2023-05-13T11:54:52.565Z,99943.16
2023-05-13T11:57:19.762Z,99952.75
2023-05-13T12:00:07.658Z,99955.06
2023-05-13T12:02:40.536Z,99947.91
2023-05-13T12:05:10.066Z,99952.59
2023-05-13T12:07:38.468Z,99955.00
2023-05-13T12:10:07.069Z,99956.16
2023-05-13T12:12:36.078Z,99945.09
2023-05-13T12:15:05.289Z,99944.03
2023-05-13T12:17:34.261Z,99938.44
2023-05-13T12:20:13.332Z,99944.22
2023-05-13T12:22:43.587Z,99934.44
2023-05-13T12:25:32.666Z,99936.50
2023-05-13T12:28:00.437Z,99930.66
2023-05-13T12:30:34.295Z,99921.44
2023-05-13T12:33:01.780Z,99934.56
2023-05-13T12:35:28.638Z,99919.91
2023-05-13T12:38:05.538Z,99922.34
2023-05-13T12:40:32.923Z,99922.44
2023-05-13T12:43:03.454Z,99922.50
2023-05-13T12:45:31.398Z,99917.00
2023-05-13T12:47:59.392Z,99908.69
2023-05-13T12:50:26.873Z,99912.78
2023-05-13T12:52:54.558Z,99914.22
2023-05-13T12:55:21.791Z,99906.75
2023-05-13T12:58:03.245Z,99893.19
2023-05-13T13:00:31.241Z,99897.41
2023-05-13T13:02:58.211Z,99896.53
2023-05-13T13:05:26.370Z,99895.84
2023-05-13T13:07:53.411Z,99900.75
2023-05-13T13:10:20.379Z,99892.44
2023-05-13T13:12:47.433Z,99890.19
2023-05-13T13:15:14.205Z,99891.34
2023-05-13T13:17:41.016Z,99899.63
2023-05-13T13:20:08.388Z,99901.88
2023-05-13T13:22:39.143Z,99902.19
2023-05-13T13:25:07.126Z,99894.78
2023-05-13T13:27:35.171Z,99902.44
2023-05-13T13:30:02.707Z,99892.06
2023-05-13T13:32:29.839Z,99887.16
2023-05-13T13:34:58.326Z,99897.19
2023-05-13T13:37:25.849Z,99879.03
2023-05-13T13:39:52.968Z,99900.34
2023-05-13T13:42:20.320Z,99897.66
2023-05-13T13:44:47.138Z,99891.19
2023-05-13T13:47:14.856Z,99893.88
2023-05-13T13:49:41.598Z,99887.84
2023-05-13T13:52:08.599Z,99885.47
2023-05-13T13:54:35.406Z,99898.72
2023-05-13T13:57:02.495Z,99890.63
2023-05-13T13:59:29.569Z,99896.19
2023-05-13T14:01:56.879Z,99889.44
2023-05-13T14:04:27.391Z,99878.94
2023-05-13T14:06:57.779Z,99879.84
2023-05-13T14:09:25.235Z,99879.47
2023-05-13T14:11:52.077Z,99885.03
2023-05-13T14:14:19.188Z,99881.91
2023-05-13T14:16:46.132Z,99883.84
2023-05-13T14:19:13.360Z,99880.66
2023-05-13T14:21:40.383Z,99875.44
2023-05-13T14:24:08.988Z,99875.00
2023-05-13T14:26:35.879Z,99870.69
2023-05-13T14:29:02.910Z,99879.53
2023-05-13T14:31:30.515Z,99876.66
2023-05-13T14:33:58.341Z,99880.75
2023-05-13T14:36:26.836Z,99874.97
2023-05-13T14:38:54.544Z,99872.22
2023-05-13T14:41:22.747Z,99886.03
2023-05-13T14:43:49.695Z,99872.84
2023-05-13T14:46:16.682Z,99880.19
2023-05-13T14:48:43.932Z,99882.97
2023-05-13T14:51:12.443Z,99888.78
2023-05-13T14:53:42.753Z,99895.81
2023-05-13T14:56:09.982Z,99890.56
2023-05-13T14:58:37.132Z,99893.75
2023-05-13T15:01:04.266Z,99884.91
2023-05-13T15:03:31.411Z,99892.38
2023-05-13T15:05:58.384Z,99895.66
2023-05-13T15:08:25.780Z,99898.97
2023-05-13T15:10:52.697Z,99889.94
2023-05-13T15:13:19.794Z,99879.69
2023-05-13T15:15:46.889Z,99887.22
2023-05-13T15:18:14.209Z,99892.63
2023-05-13T15:20:41.442Z,99888.16
2023-05-13T15:23:08.382Z,99890.66
2023-05-13T15:25:36.157Z,99902.13
2023-05-13T15:28:03.135Z,99884.56
2023-05-13T15:30:30.237Z,99877.22
2023-05-13T15:32:57.307Z,99877.28
2023-05-13T15:35:24.278Z,99889.75
2023-05-13T15:37:51.125Z,99874.69
2023-05-13T15:40:17.959Z,99875.34
2023-05-13T15:42:44.960Z,99870.94
2023-05-13T15:45:12.055Z,99878.03
2023-05-13T15:47:38.899Z,99874.22
2023-05-13T15:50:06.994Z,99875.22
2023-05-13T15:52:33.831Z,99869.44
2023-05-13T15:55:01.069Z,99879.00
2023-05-13T15:57:27.824Z,99878.88
2023-05-13T15:59:54.834Z,99874.84
2023-05-13T16:02:21.724Z,99884.25
2023-05-13T16:04:48.700Z,99880.84
2023-05-13T16:07:15.484Z,99876.41
2023-05-13T16:09:42.626Z,99882.00
2023-05-13T16:16:25.840Z,99890.50
2023-05-13T16:18:54.209Z,99880.84
2023-05-13T16:21:21.503Z,99887.09
2023-05-13T16:23:48.341Z,99868.75
2023-05-13T16:26:15.423Z,99875.53
2023-05-13T16:28:42.202Z,99880.63
2023-05-13T16:34:00.301Z,99869.72
2023-05-13T16:36:27.195Z,99875.00
2023-05-13T16:38:54.008Z,99871.31
2023-05-13T16:41:21.582Z,99882.81
2023-05-13T16:43:48.340Z,99877.25
2023-05-13T16:46:16.681Z,99879.88
2023-05-13T16:49:05.212Z,99893.06
2023-05-13T16:51:32.034Z,99880.59
2023-05-13T16:57:39.286Z,99904.25
2023-05-13T17:00:07.449Z,99906.44
2023-05-13T17:02:34.647Z,99902.22
2023-05-13T17:05:01.620Z,99889.41
2023-05-13T17:07:28.413Z,99906.88
2023-05-13T17:09:55.474Z,99908.06
2023-05-13T17:12:22.250Z,99897.16
2023-05-13T17:14:50.394Z,99897.00
2023-05-13T17:17:17.158Z,99906.34
2023-05-13T17:19:44.188Z,99906.50
2023-05-13T17:22:20.062Z,99902.06
2023-05-13T17:24:47.174Z,99907.22
2023-05-13T17:27:14.093Z,99919.78
2023-05-13T17:29:41.141Z,99914.81
2023-05-13T17:32:08.132Z,99920.31
2023-05-13T17:34:35.144Z,99911.94
2023-05-13T17:37:02.132Z,99918.19
2023-05-13T17:39:28.926Z,99915.06
2023-05-13T17:41:56.026Z,99917.81
2023-05-13T17:44:24.001Z,99911.41
2023-05-13T17:46:50.947Z,99915.00
2023-05-13T17:49:17.964Z,99929.69
2023-05-13T17:51:44.877Z,99924.09
2023-05-13T17:54:11.774Z,99924.78
2023-05-13T17:56:38.737Z,99921.63
2023-05-13T17:59:06.684Z,99921.41
2023-05-13T18:01:33.656Z,99916.94
2023-05-13T18:04:00.890Z,99926.28
2023-05-13T18:06:27.686Z,99924.78
2023-05-13T18:08:54.715Z,99921.53
2023-05-13T18:11:22.199Z,99903.28
2023-05-13T18:13:49.120Z,99920.88
2023-05-13T18:16:19.484Z,99921.16
2023-05-13T18:18:48.627Z,99919.78
2023-05-13T18:21:16.014Z,99924.72
2023-05-13T18:23:45.809Z,99927.19
2023-05-13T18:26:12.656Z,99915.00
2023-05-13T18:28:41.597Z,99922.84
2023-05-13T18:31:08.434Z,99916.84
2023-05-13T18:33:35.385Z,99923.44
2023-05-13T18:36:02.420Z,99928.34
2023-05-13T18:38:29.207Z,99942.06
2023-05-13T18:40:56.226Z,99943.69
2023-05-13T18:43:23.228Z,99935.25
2023-05-13T18:45:50.285Z,99932.69
2023-05-13T18:48:17.509Z,99933.06
2023-05-13T18:50:44.501Z,99934.53
2023-05-13T18:53:11.419Z,99920.75
2023-05-13T18:55:38.495Z,99923.38
2023-05-13T18:58:05.415Z,99939.66
2023-05-13T19:00:32.181Z,99928.53
2023-05-13T19:02:59.503Z,99951.03
2023-05-13T19:05:26.712Z,99959.31
2023-05-13T19:07:53.693Z,99948.56
2023-05-13T19:10:20.763Z,99944.50
2023-05-13T19:12:47.801Z,99951.34
2023-05-13T19:15:14.713Z,99948.22
2023-05-13T19:17:42.294Z,99950.50
2023-05-13T19:20:09.854Z,99949.03
2023-05-13T19:22:36.958Z,99952.63
2023-05-13T19:25:05.271Z,99936.19
2023-05-13T19:27:32.364Z,99944.00
2023-05-13T19:29:59.242Z,99944.47
2023-05-13T19:32:26.344Z,99938.28
2023-05-13T19:34:53.232Z,99930.63
2023-05-13T19:37:20.442Z,99925.25
2023-05-13T19:39:47.349Z,99915.50
2023-05-13T19:42:15.248Z,99913.50
2023-05-13T19:44:42.296Z,99924.75
2023-05-13T19:47:09.383Z,99927.66
2023-05-13T19:49:36.174Z,99909.56
2023-05-13T19:52:03.284Z,99912.94
2023-05-13T19:54:30.176Z,99934.78
2023-05-13T19:56:57.356Z,99925.81
2023-05-13T19:59:24.121Z,99916.81
2023-05-13T20:01:52.079Z,99925.09
2023-05-13T20:04:19.106Z,99930.63
2023-05-13T20:06:46.065Z,99924.44
2023-05-13T20:09:12.895Z,99924.28
2023-05-13T20:11:39.822Z,99919.03
2023-05-13T20:14:06.721Z,99904.09
2023-05-13T20:16:33.653Z,99906.00
2023-05-13T20:19:00.648Z,99906.25
2023-05-13T20:21:27.712Z,99917.19
2023-05-13T20:23:54.738Z,99903.78
2023-05-13T20:26:22.025Z,99918.72
2023-05-13T20:28:51.481Z,99919.72
2023-05-13T20:31:18.497Z,99917.91
2023-05-13T20:33:45.790Z,99919.66
2023-05-13T20:36:16.356Z,99931.63
2023-05-13T20:38:46.733Z,99922.66
2023-05-13T20:41:13.598Z,99939.22
2023-05-13T20:43:44.875Z,99936.69
2023-05-13T20:46:18.984Z,99938.56
2023-05-13T20:48:51.604Z,99942.03
2023-05-13T20:51:18.598Z,99944.94
2023-05-13T20:53:47.547Z,99940.16
2023-05-13T20:57:04.061Z,99938.22
2023-05-13T20:59:31.415Z,99935.97
2023-05-13T21:01:58.792Z,99935.84
2023-05-13T21:04:25.858Z,99937.28
2023-05-13T21:06:57.341Z,99943.00
2023-05-13T21:09:25.360Z,99944.22
2023-05-13T21:11:52.152Z,99932.38
2023-05-13T21:14:19.256Z,99928.91
2023-05-13T21:16:46.060Z,99939.63
2023-05-13T21:19:22.753Z,99940.53
2023-05-13T21:21:50.319Z,99932.38
2023-05-13T21:24:18.981Z,99951.34
2023-05-13T21:26:47.060Z,99942.28
2023-05-13T21:29:13.994Z,99938.06
2023-05-13T21:31:41.108Z,99937.25
2023-05-13T21:34:08.274Z,99929.41
2023-05-13T21:36:38.890Z,99921.25
2023-05-13T21:39:07.169Z,99927.44
2023-05-13T21:41:34.152Z,99916.19
2023-05-13T21:44:01.140Z,99928.22
2023-05-13T21:46:28.256Z,99920.66
2023-05-13T21:48:55.359Z,99929.88
2023-05-13T21:51:22.482Z,99918.00
2023-05-13T21:53:49.385Z,99920.66
2023-05-13T21:56:16.357Z,99928.91
2023-05-13T21:58:44.713Z,99927.00
2023-05-13T22:01:11.762Z,99944.41
2023-05-13T22:03:38.785Z,99904.28
2023-05-13T22:06:05.857Z,99924.06
2023-05-13T22:08:33.622Z,99925.47
2023-05-13T22:11:01.462Z,99926.38
2023-05-13T22:13:28.332Z,99936.56
2023-05-13T22:15:55.474Z,99939.28
2023-05-13T22:18:23.787Z,99914.44
2023-05-13T22:20:51.268Z,99933.84
2023-05-13T22:23:18.166Z,99937.41
2023-05-13T22:25:45.088Z,99921.81
2023-05-13T22:28:12.095Z,99924.34
2023-05-13T22:30:39.140Z,99923.03
2023-05-13T22:33:06.297Z,99924.34
2023-05-13T22:35:36.481Z,99924.06
2023-05-13T22:38:06.598Z,99905.41
2023-05-13T22:40:33.625Z,99928.91
2023-05-13T22:43:00.794Z,99936.19
2023-05-13T22:45:27.737Z,99937.88
2023-05-13T22:47:55.924Z,99946.88
2023-05-13T22:50:23.321Z,99955.50
2023-05-13T22:52:50.412Z,99932.38
2023-05-13T22:55:17.503Z,99937.88
2023-05-13T22:57:44.281Z,99943.69
2023-05-13T23:00:12.081Z,99935.84
2023-05-13T23:02:38.884Z,99948.63
2023-05-13T23:05:06.345Z,99943.09
2023-05-13T23:07:33.124Z,99959.28
2023-05-13T23:09:59.928Z,99954.38
2023-05-13T23:12:26.863Z,99959.81
2023-05-13T23:14:53.874Z,99965.94
2023-05-13T23:17:20.655Z,99950.06
2023-05-13T23:19:47.690Z,99956.59
2023-05-13T23:22:14.550Z,99966.38
2023-05-13T23:24:41.438Z,99961.16
2023-05-13T23:27:08.242Z,99963.69
2023-05-13T23:29:35.211Z,99958.47
2023-05-13T23:32:03.301Z,99955.50
2023-05-13T23:34:31.365Z,99954.72
2023-05-13T23:36:58.269Z,99962.44
2023-05-13T23:39:25.084Z,99970.97
2023-05-13T23:41:51.964Z,99950.50
2023-05-13T23:44:19.064Z,99966.94
2023-05-13T23:46:45.890Z,99957.94
2023-05-13T23:49:13.021Z,99972.66
2023-05-13T23:51:39.760Z,99960.38
2023-05-13T23:54:08.377Z,99971.84
2023-05-13T23:56:35.339Z,99963.66
2023-05-13T23:59:02.272Z,99953.53
